Dominica — CQNQ — position and weather

sailwx.info

Track history (hours):
 
Tides and Currents Weather Stations Pressure Air Temp Water Temp Dewpoint Dewpoint Depression Visibility Wind Speed Wind Dir Waves Ship Positions

Dominica

Last reported at 2017-Dec-18 09:36 UTC. Time now 2017-Dec-18 16:43 UTC.
Position N 39°41' W 009°38'.

Length 128 m; draft 5.9 m.

Type: Cargo ship. MMSI: 225803960.

Date/timePositionNaut miles runAvg speedWind from/ knotsBaromVisibWave heightAir tempDewpointWater temp
2017-Dec-18 09:36N 39°41' W 009°38'113.4
2017-Dec-18 09:29N 39°40' W 009°39'713.6
2017-Dec-18 08:59N 39°34' W 009°43'713.8
2017-Dec-18 08:30N 39°28' W 009°48'713.3
2017-Dec-18 08:00N 39°22' W 009°52'713.6
2017-Dec-18 07:30N 39°16' W 009°51'713.7
2017-Dec-18 07:00N 39°09' W 009°51'713.8
2017-Dec-18 06:30N 39°02' W 009°51'713.6
2017-Dec-18 06:00N 38°55' W 009°51'713.5
2017-Dec-18 05:30N 38°48' W 009°51'713.6
2017-Dec-18 05:00N 38°41' W 009°50'713.7
2017-Dec-18 04:30N 38°35' W 009°49'714.1
2017-Dec-18 04:00N 38°28' W 009°47'713.8
2017-Dec-18 03:30N 38°21' W 009°45'713.7
2017-Dec-18 03:00N 38°14' W 009°43'713.4
2017-Dec-18 02:30N 38°08' W 009°41'713.4
2017-Dec-18 02:00N 38°01' W 009°39'713.9
2017-Dec-18 01:30N 37°55' W 009°37'713.9
2017-Dec-18 01:00N 37°48' W 009°35'713.9
2017-Dec-18 00:30N 37°41' W 009°33'6712.1
2017-Dec-17 19:00N 36°41' W 008°56'17114.0
2017-Dec-17 06:48N 35°59' W 005°30'311.0
2017-Dec-17 06:30N 35°60' W 005°26'611.0
2017-Dec-17 05:59N 36°01' W 005°19'612.9
2017-Dec-17 05:30N 36°02' W 005°12'59412.5
2017-Dec-15 05:58N 37°18' E 007°02'812.4
2017-Dec-15 05:19N 37°17' E 007°12'413.1
2017-Dec-15 05:00N 37°17' E 007°17'612.5
2017-Dec-15 04:31N 37°17' E 007°25'612.1
2017-Dec-15 04:01N 37°17' E 007°33'1912.8
2017-Dec-15 02:29N 37°18' E 007°57'  
Track history (hours):
 
Tides and Currents Weather Stations Pressure Air Temp Water Temp Dewpoint Dewpoint Depression Visibility Wind Speed Wind Dir Waves Ship Positions

Dominica

Last reported at 2017-Dec-18 09:36 UTC. Time now 2017-Dec-18 16:43 UTC.
Position N 39°41' W 009°38'.

Length 128 m; draft 5.9 m.

Type: Cargo ship. MMSI: 225803960.

Date/timePositionNaut miles runAvg speedWind from/ knotsBaromVisibWave heightAir tempDewpointWater temp
2017-Dec-18 09:36N 39°41' W 009°38'113.4
2017-Dec-18 09:29N 39°40' W 009°39'713.6
2017-Dec-18 08:59N 39°34' W 009°43'713.8
2017-Dec-18 08:30N 39°28' W 009°48'713.3
2017-Dec-18 08:00N 39°22' W 009°52'713.6
2017-Dec-18 07:30N 39°16' W 009°51'713.7
2017-Dec-18 07:00N 39°09' W 009°51'713.8
2017-Dec-18 06:30N 39°02' W 009°51'713.6
2017-Dec-18 06:00N 38°55' W 009°51'713.5
2017-Dec-18 05:30N 38°48' W 009°51'713.6
2017-Dec-18 05:00N 38°41' W 009°50'713.7
2017-Dec-18 04:30N 38°35' W 009°49'714.1
2017-Dec-18 04:00N 38°28' W 009°47'713.8
2017-Dec-18 03:30N 38°21' W 009°45'713.7
2017-Dec-18 03:00N 38°14' W 009°43'713.4
2017-Dec-18 02:30N 38°08' W 009°41'713.4
2017-Dec-18 02:00N 38°01' W 009°39'713.9
2017-Dec-18 01:30N 37°55' W 009°37'713.9
2017-Dec-18 01:00N 37°48' W 009°35'713.9
2017-Dec-18 00:30N 37°41' W 009°33'6712.1
2017-Dec-17 19:00N 36°41' W 008°56'17114.0
2017-Dec-17 06:48N 35°59' W 005°30'311.0
2017-Dec-17 06:30N 35°60' W 005°26'611.0
2017-Dec-17 05:59N 36°01' W 005°19'612.9
2017-Dec-17 05:30N 36°02' W 005°12'59412.5
2017-Dec-15 05:58N 37°18' E 007°02'812.4
2017-Dec-15 05:19N 37°17' E 007°12'413.1
2017-Dec-15 05:00N 37°17' E 007°17'612.5
2017-Dec-15 04:31N 37°17' E 007°25'612.1
2017-Dec-15 04:01N 37°17' E 007°33'1912.8
2017-Dec-15 02:29N 37°18' E 007°57'  

Dump ship's entire track history